createdAt,value
2022-07-29T00:01:54.792Z,10.45
2022-07-29T00:04:22.526Z,5.97
2022-07-29T00:06:50.587Z,7.63
2022-07-29T00:09:18.423Z,11.88
2022-07-29T00:11:46.192Z,12.40
2022-07-29T00:14:16.370Z,8.30
2022-07-29T00:16:44.293Z,11.40
2022-07-29T00:19:11.894Z,9.73
2022-07-29T00:21:40.369Z,9.63
2022-07-29T00:24:08.097Z,7.78
2022-07-29T00:26:36.152Z,9.88
2022-07-29T00:31:52.633Z,9.38
2022-07-29T00:34:39.160Z,8.60
2022-07-29T00:37:07.931Z,9.77
2022-07-29T00:39:36.216Z,8.98
2022-07-29T00:42:05.871Z,8.85
2022-07-29T00:44:41.102Z,11.82
2022-07-29T00:47:10.047Z,9.65
2022-07-29T00:49:43.219Z,8.93
2022-07-29T00:52:12.346Z,6.85
2022-07-29T00:54:44.004Z,8.48
2022-07-29T00:57:12.945Z,7.90
2022-07-29T00:59:40.779Z,7.55
2022-07-29T01:02:08.465Z,6.70
2022-07-29T01:04:36.269Z,5.90
2022-07-29T01:07:04.997Z,9.95
2022-07-29T01:09:41.995Z,7.10
2022-07-29T01:12:18.744Z,7.80
2022-07-29T01:14:47.420Z,6.45
2022-07-29T01:17:52.699Z,6.88
2022-07-29T01:20:31.513Z,9.45
2022-07-29T01:23:10.669Z,5.25
2022-07-29T01:25:56.325Z,5.55
2022-07-29T01:28:43.539Z,10.20
2022-07-29T01:31:25.306Z,9.10
2022-07-29T01:36:33.304Z,6.68
2022-07-29T01:39:13.253Z,7.63
2022-07-29T01:41:50.576Z,5.57
2022-07-29T01:44:27.996Z,10.32
2022-07-29T01:46:59.451Z,7.05
2022-07-29T01:49:30.713Z,7.32
2022-07-29T01:54:53.210Z,5.68
2022-07-29T01:57:26.034Z,6.53
2022-07-29T01:59:54.632Z,7.72
2022-07-29T02:02:23.063Z,7.28
2022-07-29T02:04:51.424Z,10.23
2022-07-29T02:07:22.041Z,8.20
2022-07-29T02:09:52.457Z,7.55
2022-07-29T02:12:21.706Z,7.32
2022-07-29T02:14:53.911Z,7.88
2022-07-29T02:17:28.805Z,4.95
2022-07-29T02:20:00.929Z,7.35
2022-07-29T02:22:32.320Z,9.93
2022-07-29T02:25:00.966Z,6.07
2022-07-29T02:27:30.182Z,7.07
2022-07-29T02:30:00.058Z,8.18
2022-07-29T02:32:29.725Z,7.35
2022-07-29T02:34:59.594Z,8.27
2022-07-29T02:37:28.730Z,7.85
2022-07-29T02:39:58.373Z,7.00
2022-07-29T02:42:28.492Z,8.18
2022-07-29T02:44:56.612Z,9.07
2022-07-29T02:47:26.885Z,8.32
2022-07-29T02:50:00.434Z,6.28
2022-07-29T02:52:40.918Z,7.68
2022-07-29T02:55:20.319Z,8.80
2022-07-29T02:58:03.444Z,5.25
2022-07-29T03:00:34.665Z,7.68
2022-07-29T03:03:07.661Z,9.48
2022-07-29T03:05:36.211Z,8.25
2022-07-29T03:08:06.018Z,8.10
2022-07-29T03:10:34.198Z,5.30
2022-07-29T03:13:02.467Z,7.10
2022-07-29T03:15:32.236Z,8.30
2022-07-29T03:18:00.799Z,8.05
2022-07-29T03:20:28.544Z,6.28
2022-07-29T03:22:56.330Z,10.38
2022-07-29T03:25:23.852Z,12.07
2022-07-29T03:27:51.658Z,8.00
2022-07-29T03:30:22.323Z,7.32
2022-07-29T03:32:52.691Z,7.18
2022-07-29T03:35:21.605Z,10.10
2022-07-29T03:37:50.178Z,10.15
2022-07-29T03:40:38.690Z,6.47
2022-07-29T03:43:08.391Z,9.52
2022-07-29T03:45:36.743Z,9.70
2022-07-29T03:48:10.047Z,8.77
2022-07-29T03:50:37.674Z,7.80
2022-07-29T03:53:05.465Z,9.38
2022-07-29T03:55:38.900Z,7.22
2022-07-29T03:58:08.981Z,6.28
2022-07-29T04:00:38.532Z,6.83
2022-07-29T04:03:11.634Z,6.28
2022-07-29T04:05:39.686Z,7.28
2022-07-29T04:08:07.262Z,7.90
2022-07-29T04:10:35.726Z,9.90
2022-07-29T04:13:03.499Z,8.20
2022-07-29T04:15:31.860Z,11.10
2022-07-29T04:18:00.373Z,6.22
2022-07-29T04:20:28.088Z,8.95
2022-07-29T04:22:55.564Z,8.55
2022-07-29T04:25:23.310Z,9.43
2022-07-29T04:28:03.202Z,6.85
2022-07-29T04:30:32.435Z,6.17
2022-07-29T04:33:01.772Z,9.88
2022-07-29T04:35:30.862Z,6.70
2022-07-29T04:38:07.305Z,6.82
2022-07-29T04:40:43.508Z,9.40
2022-07-29T04:43:12.607Z,8.68
2022-07-29T04:45:42.124Z,14.10
2022-07-29T04:48:09.919Z,7.70
2022-07-29T04:50:40.542Z,10.77
2022-07-29T04:53:08.734Z,6.88
2022-07-29T04:55:37.402Z,6.88
2022-07-29T04:58:06.677Z,10.35
2022-07-29T05:00:35.246Z,7.43
2022-07-29T05:03:03.189Z,8.45
2022-07-29T05:05:30.847Z,8.23
2022-07-29T05:07:58.695Z,8.02
2022-07-29T05:10:26.763Z,10.70
2022-07-29T05:12:54.355Z,8.70
2022-07-29T05:15:21.963Z,9.88
2022-07-29T05:17:49.654Z,13.50
2022-07-29T05:20:17.235Z,8.32
2022-07-29T05:22:44.660Z,10.07
2022-07-29T05:25:12.291Z,5.22
2022-07-29T05:27:39.750Z,11.38
2022-07-29T05:30:07.913Z,10.20
2022-07-29T05:32:35.593Z,8.85
2022-07-29T05:35:03.246Z,6.28
2022-07-29T05:37:30.710Z,7.30
2022-07-29T05:39:59.073Z,11.27
2022-07-29T05:42:27.507Z,6.25
2022-07-29T05:44:55.010Z,5.95
2022-07-29T05:47:23.295Z,8.88
2022-07-29T05:49:51.615Z,6.10
2022-07-29T05:52:19.567Z,11.13
2022-07-29T05:54:47.403Z,6.88
2022-07-29T05:57:18.185Z,10.07
2022-07-29T05:59:46.126Z,9.00
2022-07-29T06:02:13.616Z,12.85
2022-07-29T06:04:41.379Z,9.20
2022-07-29T06:07:09.168Z,7.13
2022-07-29T06:09:37.175Z,8.95
2022-07-29T06:12:05.127Z,9.07
2022-07-29T06:14:33.605Z,18.55
2022-07-29T06:17:01.142Z,11.32
2022-07-29T06:19:28.644Z,10.05
2022-07-29T06:21:56.071Z,12.48
2022-07-29T06:24:23.656Z,10.32
2022-07-29T06:26:51.151Z,16.50
2022-07-29T06:29:18.621Z,7.35
2022-07-29T06:31:46.139Z,10.15
2022-07-29T06:34:14.109Z,8.45
2022-07-29T06:36:41.831Z,14.43
2022-07-29T06:39:09.939Z,7.30
2022-07-29T06:41:39.108Z,7.15
2022-07-29T06:44:10.736Z,15.25
2022-07-29T06:46:38.346Z,12.95
2022-07-29T06:49:06.059Z,12.02
2022-07-29T06:51:34.133Z,15.27
2022-07-29T06:54:03.336Z,14.93
2022-07-29T06:56:39.109Z,13.40
2022-07-29T06:59:09.270Z,10.95
2022-07-29T07:01:41.682Z,14.45
2022-07-29T07:04:10.330Z,13.70
2022-07-29T07:06:38.742Z,14.07
2022-07-29T07:09:06.542Z,9.85
2022-07-29T07:11:33.988Z,10.85
2022-07-29T07:14:03.854Z,12.65
2022-07-29T07:16:32.923Z,10.73
2022-07-29T07:19:01.397Z,12.45
2022-07-29T07:21:30.599Z,16.00
2022-07-29T07:23:59.892Z,10.98
2022-07-29T07:26:28.292Z,18.98
2022-07-29T07:28:55.900Z,14.20
2022-07-29T07:31:23.595Z,16.65
2022-07-29T07:33:51.126Z,11.68
2022-07-29T07:36:18.615Z,13.98
2022-07-29T07:38:46.182Z,13.88
2022-07-29T07:41:13.638Z,12.93
2022-07-29T07:43:41.485Z,9.50
2022-07-29T07:46:09.150Z,7.80
2022-07-29T07:48:37.105Z,12.50
2022-07-29T07:51:04.778Z,16.25
2022-07-29T07:53:32.539Z,11.13
2022-07-29T07:56:10.629Z,23.83
2022-07-29T07:58:39.711Z,10.75
2022-07-29T08:01:07.825Z,12.00
2022-07-29T08:03:35.712Z,13.18
2022-07-29T08:06:04.773Z,15.30
2022-07-29T08:08:32.501Z,9.45
2022-07-29T08:11:03.129Z,8.20
2022-07-29T08:13:33.521Z,14.18
2022-07-29T08:16:02.583Z,9.25
2022-07-29T08:18:31.838Z,11.02
2022-07-29T08:20:59.702Z,11.50
2022-07-29T08:23:32.887Z,12.93
2022-07-29T08:26:14.688Z,7.93
2022-07-29T08:28:49.588Z,13.00
2022-07-29T08:31:17.779Z,7.57
2022-07-29T08:33:45.469Z,8.35
2022-07-29T08:36:14.154Z,12.18
2022-07-29T08:38:41.666Z,6.03
2022-07-29T08:41:09.199Z,11.57
2022-07-29T08:43:38.369Z,12.20
2022-07-29T08:46:06.808Z,8.82
2022-07-29T08:48:35.237Z,8.38
2022-07-29T08:51:04.395Z,8.32
2022-07-29T08:53:32.909Z,9.63
2022-07-29T08:56:00.989Z,10.90
2022-07-29T08:58:36.570Z,8.35
2022-07-29T09:01:07.488Z,5.97
2022-07-29T09:03:37.536Z,3.83
2022-07-29T09:06:06.006Z,10.05
2022-07-29T09:08:34.863Z,6.28
2022-07-29T09:11:03.926Z,8.55
2022-07-29T09:13:32.747Z,4.63
2022-07-29T09:16:02.517Z,9.65
2022-07-29T09:18:46.729Z,6.07
2022-07-29T09:21:34.797Z,6.63
2022-07-29T09:24:13.569Z,9.32
2022-07-29T09:26:42.782Z,8.65
2022-07-29T09:29:20.621Z,6.78
2022-07-29T09:31:53.543Z,8.68
2022-07-29T09:34:26.820Z,7.57
2022-07-29T09:36:56.350Z,8.00
2022-07-29T09:39:33.028Z,10.02
2022-07-29T09:42:06.250Z,7.82
2022-07-29T09:44:51.248Z,6.00
2022-07-29T09:47:22.799Z,6.82
2022-07-29T09:49:59.196Z,15.23
2022-07-29T09:52:28.532Z,7.10
2022-07-29T09:55:09.566Z,6.72
2022-07-29T09:57:37.375Z,8.07
2022-07-29T10:00:07.739Z,4.68
2022-07-29T10:02:44.896Z,5.70
2022-07-29T10:05:24.129Z,5.85
2022-07-29T10:07:57.147Z,7.93
2022-07-29T10:10:36.891Z,7.05
2022-07-29T10:13:15.693Z,11.32
2022-07-29T10:15:46.192Z,10.48
2022-07-29T10:18:18.564Z,10.40
2022-07-29T10:20:46.443Z,9.00
2022-07-29T10:23:14.372Z,6.53
2022-07-29T10:25:46.179Z,11.25
2022-07-29T10:28:16.683Z,12.43
2022-07-29T10:30:46.511Z,12.45
2022-07-29T10:33:22.493Z,7.40
2022-07-29T10:36:15.847Z,8.15
2022-07-29T10:39:03.317Z,4.72
2022-07-29T10:42:04.647Z,6.57
2022-07-29T10:44:34.322Z,9.02
2022-07-29T10:47:02.627Z,5.67
2022-07-29T10:49:31.136Z,4.20
2022-07-29T10:52:00.871Z,8.73
2022-07-29T10:54:37.095Z,13.15
2022-07-29T10:57:14.980Z,7.70
2022-07-29T10:59:45.209Z,5.70
2022-07-29T11:02:41.780Z,9.23
2022-07-29T11:05:15.701Z,5.97
2022-07-29T11:08:20.173Z,7.45
2022-07-29T11:10:49.883Z,8.85
2022-07-29T11:13:51.446Z,6.03
2022-07-29T11:16:25.164Z,5.75
2022-07-29T11:19:13.349Z,3.78
2022-07-29T11:21:54.045Z,6.88
2022-07-29T11:24:35.018Z,6.50
2022-07-29T11:27:13.554Z,7.23
2022-07-29T11:29:58.831Z,6.32
2022-07-29T11:32:41.961Z,3.28
2022-07-29T11:35:18.447Z,5.38
2022-07-29T11:37:52.495Z,4.00
2022-07-29T11:40:23.519Z,4.82
2022-07-29T11:42:52.157Z,6.22
2022-07-29T11:45:41.922Z,5.55
2022-07-29T11:48:28.462Z,8.85
2022-07-29T11:50:58.165Z,3.88
2022-07-29T11:53:28.965Z,6.05
2022-07-29T11:56:16.421Z,6.90
2022-07-29T11:58:45.757Z,4.40
2022-07-29T12:01:18.274Z,7.75
2022-07-29T12:03:45.882Z,7.38
2022-07-29T12:09:08.597Z,7.57
2022-07-29T12:11:41.980Z,4.50
2022-07-29T12:14:35.312Z,4.95
2022-07-29T12:17:02.777Z,4.85
2022-07-29T12:19:44.285Z,4.75
2022-07-29T12:22:12.637Z,9.55
2022-07-29T12:24:46.452Z,6.38
2022-07-29T12:27:18.697Z,5.45
2022-07-29T12:30:04.871Z,6.95
2022-07-29T12:32:37.575Z,3.50
2022-07-29T12:35:16.692Z,5.75
2022-07-29T12:37:46.117Z,7.72
2022-07-29T12:40:17.230Z,7.05
2022-07-29T12:43:10.782Z,7.38
2022-07-29T12:45:50.842Z,7.70
2022-07-29T12:48:33.067Z,4.80
2022-07-29T12:51:03.775Z,5.43
2022-07-29T12:53:31.549Z,5.55
2022-07-29T12:56:07.955Z,7.80
2022-07-29T12:58:44.502Z,5.10
2022-07-29T13:01:18.971Z,4.65
2022-07-29T13:03:59.703Z,10.15
2022-07-29T13:06:41.099Z,4.20
2022-07-29T13:09:08.685Z,5.55
2022-07-29T13:11:39.417Z,4.45
2022-07-29T13:14:09.617Z,6.63
2022-07-29T13:16:58.218Z,4.95
2022-07-29T13:19:37.809Z,4.72
2022-07-29T13:22:06.214Z,5.95
2022-07-29T13:24:34.272Z,6.20
2022-07-29T13:27:01.830Z,6.15
2022-07-29T13:29:33.246Z,6.45
2022-07-29T13:32:01.123Z,7.03
2022-07-29T13:34:29.018Z,3.22
2022-07-29T13:36:56.614Z,4.65
2022-07-29T13:39:24.121Z,5.25
2022-07-29T13:41:52.471Z,6.38
2022-07-29T13:44:19.955Z,8.77
2022-07-29T13:46:47.516Z,5.50
2022-07-29T13:49:15.165Z,7.13
2022-07-29T13:51:42.629Z,5.35
2022-07-29T13:54:10.165Z,2.80
2022-07-29T13:56:37.708Z,5.10
2022-07-29T13:59:05.347Z,6.63
2022-07-29T14:01:32.904Z,6.30
2022-07-29T14:04:00.932Z,6.82
2022-07-29T14:06:28.509Z,4.78
2022-07-29T14:08:57.556Z,5.10
2022-07-29T14:11:25.110Z,3.35
2022-07-29T14:13:52.891Z,4.20
2022-07-29T14:16:20.711Z,5.22
2022-07-29T14:18:48.392Z,4.82
2022-07-29T14:21:15.858Z,4.22
2022-07-29T14:23:43.406Z,5.18
2022-07-29T14:26:15.858Z,10.65
2022-07-29T14:28:44.718Z,3.90
2022-07-29T14:31:12.282Z,5.35
2022-07-29T14:33:39.866Z,5.10
2022-07-29T14:36:07.509Z,4.95
2022-07-29T14:38:35.081Z,4.90
2022-07-29T14:41:02.737Z,4.82
2022-07-29T14:43:30.558Z,5.32
2022-07-29T14:46:02.940Z,4.75
2022-07-29T14:48:33.068Z,3.50
2022-07-29T14:51:04.543Z,4.78
2022-07-29T14:53:33.029Z,4.93
2022-07-29T14:56:20.833Z,4.68
2022-07-29T14:58:51.732Z,5.13
2022-07-29T15:01:19.742Z,3.35
2022-07-29T15:03:47.252Z,3.72
2022-07-29T15:06:14.739Z,3.85
2022-07-29T15:08:42.313Z,5.43
2022-07-29T15:11:10.241Z,4.30
2022-07-29T15:13:37.790Z,8.48
2022-07-29T15:16:07.051Z,5.97
2022-07-29T15:18:34.726Z,6.90
2022-07-29T15:21:03.292Z,3.10
2022-07-29T15:23:30.766Z,4.72
2022-07-29T15:25:58.427Z,3.08
2022-07-29T15:28:26.052Z,4.35
2022-07-29T15:30:53.875Z,3.72
2022-07-29T15:33:21.369Z,6.47
2022-07-29T15:35:48.912Z,5.35
2022-07-29T15:38:17.453Z,4.25
2022-07-29T15:40:46.559Z,5.25
2022-07-29T15:43:14.290Z,6.37
2022-07-29T15:46:03.397Z,4.95
2022-07-29T15:48:30.960Z,7.03
2022-07-29T15:51:00.288Z,5.38
2022-07-29T15:53:27.773Z,3.30
2022-07-29T15:55:55.488Z,5.65
2022-07-29T15:58:23.040Z,4.75
2022-07-29T16:00:50.712Z,4.75
2022-07-29T16:03:18.283Z,6.45
2022-07-29T16:05:45.863Z,3.03
2022-07-29T16:08:13.308Z,3.13
2022-07-29T16:10:41.095Z,4.88
2022-07-29T16:13:08.691Z,3.65
2022-07-29T16:15:36.433Z,3.92
2022-07-29T16:18:04.000Z,4.35
2022-07-29T16:20:32.122Z,4.70
2022-07-29T16:23:00.559Z,3.95
2022-07-29T16:25:57.597Z,3.17
2022-07-29T16:28:17.225Z,4.80
2022-07-29T16:30:44.730Z,2.80
2022-07-29T16:33:12.206Z,4.03
2022-07-29T16:35:40.446Z,8.70
2022-07-29T16:38:08.263Z,5.38
2022-07-29T16:40:35.724Z,4.88
2022-07-29T16:43:03.340Z,2.85
2022-07-29T16:45:32.690Z,3.72
2022-07-29T16:48:15.063Z,6.60
2022-07-29T16:50:45.762Z,3.78
2022-07-29T16:53:13.532Z,4.40
2022-07-29T16:55:42.394Z,6.65
2022-07-29T16:58:11.010Z,3.58
2022-07-29T17:00:39.392Z,6.63
2022-07-29T17:03:06.938Z,4.63
2022-07-29T17:05:52.803Z,7.50
2022-07-29T17:08:23.071Z,8.70
2022-07-29T17:10:50.727Z,8.35
2022-07-29T17:13:18.338Z,6.80
2022-07-29T17:15:46.043Z,6.18
2022-07-29T17:18:13.504Z,4.13
2022-07-29T17:20:41.745Z,6.10
2022-07-29T17:23:09.445Z,5.57
2022-07-29T17:25:37.153Z,6.05
2022-07-29T17:28:04.930Z,5.20
2022-07-29T17:30:32.589Z,7.45
2022-07-29T17:33:00.181Z,8.65
2022-07-29T17:35:46.089Z,5.72
2022-07-29T17:38:13.542Z,7.85
2022-07-29T17:40:41.238Z,8.48
2022-07-29T17:43:09.378Z,6.28
2022-07-29T17:45:48.737Z,8.32
2022-07-29T17:48:19.122Z,5.55
2022-07-29T17:50:48.013Z,5.25
2022-07-29T17:53:16.275Z,5.30
2022-07-29T17:55:48.791Z,5.13
2022-07-29T17:58:16.647Z,9.02
2022-07-29T18:00:44.678Z,5.93
2022-07-29T18:03:12.640Z,7.95
2022-07-29T18:05:40.536Z,10.98
2022-07-29T18:08:08.097Z,9.98
2022-07-29T18:10:35.638Z,9.80
2022-07-29T18:13:04.480Z,4.60
2022-07-29T18:15:32.217Z,5.55
2022-07-29T18:17:59.844Z,8.07
2022-07-29T18:20:27.678Z,7.72
2022-07-29T18:22:55.139Z,4.90
2022-07-29T18:25:23.653Z,5.70
2022-07-29T18:27:51.398Z,6.80
2022-07-29T18:30:20.148Z,9.27
2022-07-29T18:33:11.375Z,6.00
2022-07-29T18:35:37.518Z,5.05
2022-07-29T18:38:06.026Z,7.05
2022-07-29T18:40:33.661Z,17.15
2022-07-29T18:43:01.310Z,6.78
2022-07-29T18:45:28.990Z,5.43
2022-07-29T18:47:56.922Z,7.63
2022-07-29T18:50:29.683Z,5.38
2022-07-29T18:52:58.884Z,6.10
2022-07-29T18:55:27.134Z,4.82
2022-07-29T18:57:57.164Z,7.88
2022-07-29T19:00:25.927Z,7.13
2022-07-29T19:02:53.900Z,8.73
2022-07-29T19:05:21.594Z,8.55
2022-07-29T19:07:49.179Z,12.60
2022-07-29T19:10:16.748Z,11.15
2022-07-29T19:12:44.316Z,11.60
2022-07-29T19:15:11.883Z,12.50
2022-07-29T19:17:39.513Z,9.55
2022-07-29T19:20:07.835Z,8.93
2022-07-29T19:22:35.315Z,9.85
2022-07-29T19:25:02.974Z,14.60
2022-07-29T19:27:30.706Z,8.15
2022-07-29T19:29:59.554Z,6.32
2022-07-29T19:32:27.315Z,8.63
2022-07-29T19:35:13.206Z,7.72
2022-07-29T19:37:40.684Z,12.90
2022-07-29T19:40:10.023Z,14.10
2022-07-29T19:42:37.586Z,13.20
2022-07-29T19:45:05.614Z,8.57
2022-07-29T19:47:33.515Z,6.38
2022-07-29T19:50:01.178Z,6.18
2022-07-29T19:52:28.962Z,13.27
2022-07-29T19:54:56.997Z,9.57
2022-07-29T19:57:24.461Z,8.27
2022-07-29T19:59:54.052Z,10.52
2022-07-29T20:02:21.980Z,8.80
2022-07-29T20:04:49.684Z,7.57
2022-07-29T20:07:17.219Z,8.90
2022-07-29T20:09:45.934Z,8.35
2022-07-29T20:12:13.520Z,10.40
2022-07-29T20:14:41.045Z,9.20
2022-07-29T20:17:08.557Z,12.95
2022-07-29T20:19:36.077Z,13.88
2022-07-29T20:22:03.549Z,10.68
2022-07-29T20:24:31.022Z,9.00
2022-07-29T20:26:58.867Z,11.13
2022-07-29T20:29:27.096Z,9.15
2022-07-29T20:31:56.734Z,9.73
2022-07-29T20:34:24.415Z,10.18
2022-07-29T20:36:51.994Z,6.97
2022-07-29T20:39:21.112Z,10.30
2022-07-29T20:41:49.686Z,8.80
2022-07-29T20:44:19.699Z,8.60
2022-07-29T20:46:48.812Z,9.10
2022-07-29T20:49:16.354Z,9.73
2022-07-29T20:51:44.335Z,9.07
2022-07-29T20:54:12.541Z,10.32
2022-07-29T20:56:41.325Z,8.13
2022-07-29T20:59:09.298Z,5.30
2022-07-29T21:01:36.880Z,8.57
2022-07-29T21:04:04.905Z,10.13
2022-07-29T21:06:32.410Z,8.15
2022-07-29T21:09:01.137Z,11.00
2022-07-29T21:11:43.299Z,9.70
2022-07-29T21:14:29.505Z,10.65
2022-07-29T21:16:57.169Z,11.10
2022-07-29T21:19:24.959Z,8.48
2022-07-29T21:21:52.668Z,9.93
2022-07-29T21:24:20.286Z,10.52
2022-07-29T21:27:11.044Z,13.85
2022-07-29T21:29:35.109Z,9.15
2022-07-29T21:32:02.565Z,7.38
2022-07-29T21:34:30.195Z,8.75
2022-07-29T21:36:57.651Z,8.93
2022-07-29T21:39:25.139Z,9.25
2022-07-29T21:41:52.777Z,9.38
2022-07-29T21:44:21.754Z,6.63
2022-07-29T21:46:49.580Z,5.82
2022-07-29T21:49:17.196Z,5.82
2022-07-29T21:51:44.629Z,7.20
2022-07-29T21:54:12.341Z,8.38
2022-07-29T21:56:41.536Z,11.10
2022-07-29T21:59:09.885Z,6.03
2022-07-29T22:01:40.417Z,9.68
2022-07-29T22:04:07.958Z,13.13
2022-07-29T22:06:35.623Z,22.88
2022-07-29T22:09:03.489Z,30.15
2022-07-29T22:11:31.108Z,22.67
2022-07-29T22:13:58.855Z,15.60
2022-07-29T22:16:26.478Z,18.05
2022-07-29T22:18:54.009Z,22.42
2022-07-29T22:21:21.529Z,27.20
2022-07-29T22:23:49.246Z,33.90
2022-07-29T22:26:16.767Z,27.98
2022-07-29T22:28:44.225Z,22.45
2022-07-29T22:31:12.226Z,13.50
2022-07-29T22:33:39.820Z,10.10
2022-07-29T22:36:07.676Z,17.40
2022-07-29T22:38:35.112Z,9.18
2022-07-29T22:41:03.430Z,11.23
2022-07-29T22:43:31.002Z,8.02
2022-07-29T22:45:58.484Z,5.70
2022-07-29T22:48:25.945Z,8.82
2022-07-29T22:50:53.854Z,6.82
2022-07-29T22:53:21.424Z,5.25
2022-07-29T22:55:48.881Z,5.97
2022-07-29T22:58:16.360Z,6.63
2022-07-29T23:00:43.806Z,5.72
2022-07-29T23:03:11.272Z,5.15
2022-07-29T23:05:38.889Z,5.35
2022-07-29T23:08:06.669Z,3.88
2022-07-29T23:10:34.154Z,7.10
2022-07-29T23:13:01.655Z,6.50
2022-07-29T23:15:29.086Z,5.10
2022-07-29T23:17:56.547Z,4.18
2022-07-29T23:20:24.246Z,5.45
2022-07-29T23:22:52.047Z,8.05
2022-07-29T23:25:19.845Z,8.40
2022-07-29T23:27:47.561Z,7.43
2022-07-29T23:30:15.381Z,6.68
2022-07-29T23:32:42.836Z,2.92
2022-07-29T23:35:11.164Z,7.70
2022-07-29T23:37:38.838Z,8.40
2022-07-29T23:40:10.833Z,6.45
2022-07-29T23:42:42.382Z,6.55
2022-07-29T23:45:11.932Z,4.30
2022-07-29T23:47:40.806Z,8.95
2022-07-29T23:50:11.987Z,12.40
2022-07-29T23:52:42.726Z,7.05
2022-07-29T23:55:38.256Z,6.38
2022-07-29T23:57:59.910Z,6.07
